Etusivu
METAR-TAF:

METAR-TAF

Lentoasemat :

Morlaix, Ranska

Leveyspiiri: 48-36N, Pituuspiiri: 3-49W, korkeus merenpinnasta: 84 m

Tämänhetkinen sää

Tämä raportti tehtiin 13 tuntia ja 43 minuuttia sitten, kello 18.00 UTC
Tuuli 2 kn eri suunnista
Lämpötila 8°C
Kosteus 93%
Ilmanpaine 1018 hPa
Näkyvyys 10 km tai enemmän

METAR: LFRU 181800Z AUTO VRB02KT 9999 BKN016/// BKN036/// BKN043/// ///TCU 08/07 Q1018

Aika: 08:43 (07:43 UTC)


TAF: puuttuu

Säähavainnot ja -ennusteet yli 4000 lentoasemalta (METAR- ja TAF-raportit).

Käytössä olevat sääasemat on merkitty karttaan keltaisilla ja punaisilla pisteillä.

Aseta hiiri pisteen päälle nähdäksesi sääaseman nimen.

Klikkaa sitten nähdäksesi säähavainnot ja -ennusteet.

Kartan vaihtaminen: klikkaa mustalla rastilla varustettuja vihreitä pisteitä, niin voit zoomata sisään; viivalla varustettua vihreää pistettä, niin voit zoomata ulos tai vihreitä nuolia, niin pääset viereisille kartoille.


METAR-TAF: